Time;durP1;ratioP1;P1;durP2;ratioP2;P2;SDS_P1;SDS_P2;PMS_P1;PMS_P2;Temp;Humidity;BMP_temperature;BMP_pressure;BME280_temperature;BME280_humidity;BME280_pressure;Samples;Min_cycle;Max_cycle;Signal;HPM_P1;HPM_P2
2021/06/23 00:00:38;;;;;;;2.90;1.93;;;21.70;99.90;;;;;;4978217;28;20475;-81
2021/06/23 00:03:06;;;;;;;2.23;2.03;;;21.70;99.90;;;;;;4977224;28;20468;-83
2021/06/23 00:05:34;;;;;;;6.60;2.27;;;21.70;99.90;;;;;;4976235;28;20487;-82
2021/06/23 00:08:03;;;;;;;2.17;2.07;;;21.70;99.90;;;;;;4976086;28;20471;-82
2021/06/23 00:10:31;;;;;;;2.20;2.10;;;21.70;99.90;;;;;;4951298;28;20848;-83
2021/06/23 00:13:04;;;;;;;1.90;1.80;;;21.70;99.90;;;;;;4975452;28;20459;-81
2021/06/23 00:15:34;;;;;;;2.87;2.60;;;21.80;99.90;;;;;;4978350;28;20460;-81
2021/06/23 00:18:04;;;;;;;2.30;2.10;;;21.70;99.90;;;;;;4976249;28;20569;-82
2021/06/23 00:20:32;;;;;;;2.90;2.17;;;21.80;99.90;;;;;;4983613;28;20474;-84
2021/06/23 00:23:00;;;;;;;3.30;2.20;;;21.80;99.90;;;;;;4976505;28;20452;-82
2021/06/23 00:25:30;;;;;;;2.37;1.80;;;21.80;99.90;;;;;;4976193;28;20563;-82
2021/06/23 00:27:59;;;;;;;1.80;1.70;;;21.70;1.00;;;;;;4972552;28;20461;-83
2021/06/23 00:30:27;;;;;;;1.90;1.80;;;21.70;99.90;;;;;;4973876;28;20491;-83
2021/06/23 00:33:05;;;;;;;2.27;1.93;;;21.70;99.90;;;;;;4977368;28;20459;-83
2021/06/23 00:35:34;;;;;;;1.93;1.83;;;21.60;1.00;;;;;;4976459;28;20444;-82
2021/06/23 00:38:04;;;;;;;3.43;2.30;;;21.60;99.90;;;;;;4972873;28;20485;-83
2021/06/23 00:40:32;;;;;;;2.10;1.90;;;21.60;99.90;;;;;;4974514;28;20557;-82
2021/06/23 00:43:02;;;;;;;2.60;1.83;;;21.60;99.90;;;;;;4976148;28;20442;-82
2021/06/23 00:45:31;;;;;;;1.63;1.50;;;21.60;1.00;;;;;;4973501;28;20451;-83
2021/06/23 00:48:06;;;;;;;4.70;2.10;;;21.60;1.00;;;;;;4974120;28;20514;-83
2021/06/23 00:50:36;;;;;;;2.00;1.90;;;21.60;1.00;;;;;;4974544;28;20591;-83
2021/06/23 00:53:04;;;;;;;2.53;2.13;;;21.60;99.90;;;;;;4976282;28;20475;-83
2021/06/23 00:55:33;;;;;;;2.60;2.40;;;21.60;99.90;;;;;;4969554;28;20459;-82
2021/06/23 00:58:02;;;;;;;2.30;2.10;;;21.60;99.90;;;;;;4973744;28;20482;-83
2021/06/23 01:00:35;;;;;;;2.00;1.90;;;21.60;99.90;;;;;;4978577;28;20536;-84
2021/06/23 01:03:08;;;;;;;2.10;2.00;;;21.60;1.00;;;;;;4978251;28;20547;-82
2021/06/23 01:05:38;;;;;;;2.47;2.27;;;21.60;18.10;;;;;;4975180;28;20445;-82
2021/06/23 01:08:10;;;;;;;2.57;2.37;;;21.60;1.00;;;;;;4974942;28;20455;-82
2021/06/23 01:10:38;;;;;;;2.30;2.20;;;21.60;1.00;;;;;;4973316;28;20483;-82
2021/06/23 01:13:33;;;;;;;1.80;1.70;;;21.60;1.00;;;;;;4975013;28;20466;-83
2021/06/23 01:16:04;;;;;;;2.43;1.90;;;21.60;1.00;;;;;;4971727;28;20777;-83
2021/06/23 01:18:36;;;;;;;1.90;1.80;;;21.60;1.00;;;;;;4976990;28;20483;-83
2021/06/23 01:21:05;;;;;;;2.60;2.40;;;21.50;99.90;;;;;;4975056;28;20523;-83
2021/06/23 01:23:36;;;;;;;2.03;1.83;;;21.30;1.00;;;;;;4976723;28;21125;-83
2021/06/23 01:26:04;;;;;;;2.10;2.00;;;21.30;99.90;;;;;;4979404;28;20439;-83
2021/06/23 01:28:32;;;;;;;4.23;3.00;;;21.30;1.00;;;;;;4976540;28;20530;-84
2021/06/23 01:31:00;;;;;;;2.20;2.00;;;21.40;1.00;;;;;;4976371;28;20568;-83
2021/06/23 01:33:29;;;;;;;2.00;1.80;;;21.50;99.90;;;;;;4977718;28;20978;-83
2021/06/23 01:35:58;;;;;;;3.20;2.50;;;21.50;99.90;;;;;;4979111;28;20507;-81
2021/06/23 01:38:26;;;;;;;1.87;1.77;;;21.50;99.90;;;;;;4964755;28;20475;-82
2021/06/23 01:40:56;;;;;;;2.30;2.10;;;21.50;99.90;;;;;;4963400;28;20471;-82
2021/06/23 01:43:24;;;;;;;2.60;2.40;;;21.50;99.90;;;;;;4977776;28;20867;-81
2021/06/23 01:45:53;;;;;;;1.90;1.80;;;21.40;1.00;;;;;;4975234;28;20616;-82
2021/06/23 01:48:23;;;;;;;2.30;2.17;;;21.40;99.90;;;;;;4979008;28;20443;-80
2021/06/23 01:50:55;;;;;;;2.40;2.20;;;21.40;99.90;;;;;;4980529;28;20545;-83
2021/06/23 01:53:24;;;;;;;3.27;2.20;;;21.40;1.00;;;;;;4978158;28;20968;-81
2021/06/23 01:55:53;;;;;;;4.20;2.30;;;21.40;1.00;;;;;;4980723;28;20467;-81
2021/06/23 01:58:23;;;;;;;3.27;2.20;;;21.40;1.00;;;;;;4979052;28;20471;-84
2021/06/23 02:00:57;;;;;;;2.70;1.83;;;21.40;1.00;;;;;;4977049;28;20579;-83
2021/06/23 02:03:53;;;;;;;1.70;1.60;;;21.40;90.80;;;;;;4980448;28;20447;-85
2021/06/23 02:06:51;;;;;;;2.87;1.93;;;21.30;99.90;;;;;;4978999;28;20490;-82
2021/06/23 02:09:46;;;;;;;2.50;2.20;;;21.30;99.90;;;;;;4978213;28;20521;-81
2021/06/23 02:12:28;;;;;;;2.23;2.03;;;21.20;32.30;;;;;;4963632;28;20576;-82
2021/06/23 02:14:59;;;;;;;2.50;2.30;;;21.10;99.90;;;;;;4976308;28;21057;-82
2021/06/23 02:17:30;;;;;;;4.87;2.97;;;21.20;1.00;;;;;;4963291;28;20482;-84
2021/06/23 02:20:02;;;;;;;2.43;2.10;;;21.20;1.00;;;;;;4981680;28;20451;-82
2021/06/23 02:22:33;;;;;;;5.67;2.37;;;21.20;1.00;;;;;;4978783;28;20575;-83
2021/06/23 02:25:06;;;;;;;2.97;2.43;;;21.20;99.90;;;;;;4979044;28;20526;-82
2021/06/23 02:27:35;;;;;;;3.07;2.87;;;21.30;99.90;;;;;;4979205;28;20451;-82
2021/06/23 02:30:07;;;;;;;3.00;2.60;;;21.20;99.90;;;;;;4977898;28;20455;-81
2021/06/23 02:32:36;;;;;;;3.80;2.80;;;21.30;1.00;;;;;;4975539;28;20455;-83
2021/06/23 02:35:07;;;;;;;4.37;3.33;;;21.30;1.00;;;;;;4977138;28;20510;-81
2021/06/23 02:37:37;;;;;;;3.00;2.80;;;21.30;1.00;;;;;;4975714;28;20483;-82
2021/06/23 02:40:07;;;;;;;2.50;2.30;;;21.30;1.00;;;;;;4977834;28;20459;-82
2021/06/23 02:42:35;;;;;;;2.97;2.67;;;21.20;1.00;;;;;;4978527;28;20463;-83
2021/06/23 02:45:06;;;;;;;3.47;2.70;;;21.10;1.00;;;;;;4974576;28;20449;-81
2021/06/23 02:47:35;;;;;;;2.93;2.73;;;21.10;99.90;;;;;;4973592;28;21208;-82
2021/06/23 02:50:04;;;;;;;2.47;2.20;;;21.20;99.90;;;;;;4977033;28;20794;-81
2021/06/23 02:52:33;;;;;;;2.50;2.30;;;21.10;99.90;;;;;;4976952;28;20455;-83
2021/06/23 02:55:02;;;;;;;2.30;2.10;;;21.10;99.90;;;;;;4978874;28;20467;-83
2021/06/23 02:57:31;;;;;;;2.30;2.10;;;21.10;99.90;;;;;;4978675;28;20529;-82
2021/06/23 03:00:00;;;;;;;2.40;2.20;;;21.10;99.90;;;;;;4979643;28;20443;-83
2021/06/23 03:02:30;;;;;;;3.30;2.87;;;21.10;99.90;;;;;;4976179;28;20929;-81
2021/06/23 03:04:58;;;;;;;2.97;2.57;;;21.20;99.90;;;;;;4979344;28;20451;-83
2021/06/23 03:07:26;;;;;;;2.37;2.13;;;21.10;99.90;;;;;;4969263;28;20935;-82
2021/06/23 03:10:05;;;;;;;2.00;1.90;;;21.10;50.20;;;;;;4959888;29;20957;-84
2021/06/23 03:12:34;;;;;;;2.40;2.30;;;21.10;99.90;;;;;;4973355;28;20466;-83
2021/06/23 03:15:02;;;;;;;2.50;2.20;;;21.10;99.90;;;;;;4979728;28;20455;-82
2021/06/23 03:17:32;;;;;;;3.10;1.93;;;21.10;99.90;;;;;;4974124;28;20526;-82
2021/06/23 03:20:05;;;;;;;3.90;2.40;;;21.10;99.90;;;;;;4977350;28;20518;-83
2021/06/23 03:22:33;;;;;;;2.53;2.07;;;21.10;99.90;;;;;;4976716;28;20459;-83
2021/06/23 03:25:01;;;;;;;2.33;2.00;;;21.10;99.90;;;;;;4978033;28;20440;-82
2021/06/23 03:27:30;;;;;;;2.17;2.07;;;21.10;99.90;;;;;;4975488;28;20455;-81
2021/06/23 03:29:58;;;;;;;1.90;1.80;;;21.10;99.90;;;;;;4975173;28;20456;-82
2021/06/23 03:32:26;;;;;;;4.87;2.03;;;21.10;99.90;;;;;;4973757;28;20479;-81
2021/06/23 03:34:55;;;;;;;5.67;4.33;;;21.00;99.90;;;;;;4972049;28;20571;-83
2021/06/23 03:37:23;;;;;;;2.60;2.30;;;21.00;99.90;;;;;;4974938;28;20482;-83
2021/06/23 03:39:51;;;;;;;3.83;2.10;;;21.00;99.90;;;;;;4976986;28;20478;-84
2021/06/23 03:42:20;;;;;;;3.40;1.97;;;21.00;96.10;;;;;;4975924;28;20514;-82
2021/06/23 03:44:48;;;;;;;4.43;2.00;;;21.00;99.90;;;;;;4976430;28;20451;-85
2021/06/23 03:47:16;;;;;;;1.83;1.73;;;21.00;99.90;;;;;;4976490;28;20475;-84
2021/06/23 03:49:45;;;;;;;1.63;1.53;;;21.00;99.90;;;;;;4974186;28;20440;-83
2021/06/23 03:52:14;;;;;;;1.83;1.73;;;21.00;99.90;;;;;;4975327;28;20486;-83
2021/06/23 03:54:42;;;;;;;2.00;1.77;;;21.00;1.00;;;;;;4975060;28;20455;-84
2021/06/23 03:57:10;;;;;;;4.20;3.20;;;21.00;1.00;;;;;;4975811;28;20455;-83
2021/06/23 03:59:39;;;;;;;4.77;2.77;;;21.00;1.00;;;;;;4976398;28;20565;-84
2021/06/23 04:02:07;;;;;;;2.27;2.17;;;21.10;1.00;;;;;;4973717;28;20558;-84
2021/06/23 04:04:36;;;;;;;2.47;2.20;;;21.10;1.00;;;;;;4973776;28;20486;-83
2021/06/23 04:07:04;;;;;;;2.50;2.30;;;21.10;1.00;;;;;;4974193;28;20479;-81
2021/06/23 04:09:34;;;;;;;2.17;1.97;;;21.00;99.90;;;;;;4974126;28;20550;-83
2021/06/23 04:12:02;;;;;;;4.70;2.23;;;21.00;1.00;;;;;;4975388;28;20482;-83
2021/06/23 04:14:31;;;;;;;3.20;2.17;;;21.00;1.00;;;;;;4970431;28;20465;-80
2021/06/23 04:16:59;;;;;;;4.00;2.30;;;21.00;99.90;;;;;;4973252;28;20999;-80
2021/06/23 04:19:27;;;;;;;2.37;2.17;;;21.00;1.00;;;;;;4972376;28;20494;-79
2021/06/23 04:21:56;;;;;;;2.67;2.47;;;21.00;1.00;;;;;;4973815;28;20485;-79
2021/06/23 04:24:24;;;;;;;3.90;1.97;;;21.00;1.00;;;;;;4971895;28;20478;-79
2021/06/23 04:26:54;;;;;;;2.10;1.90;;;21.00;99.90;;;;;;4972716;28;20461;-78
2021/06/23 04:29:22;;;;;;;2.13;1.97;;;21.10;12.20;;;;;;4972536;28;20534;-78
2021/06/23 04:31:50;;;;;;;2.60;2.40;;;21.10;1.00;;;;;;4976808;28;20497;-79
2021/06/23 04:34:18;;;;;;;2.10;1.90;;;21.00;1.00;;;;;;4971477;28;20947;-79
2021/06/23 04:36:46;;;;;;;2.03;1.83;;;21.10;1.00;;;;;;4972727;28;20463;-80
2021/06/23 04:39:15;;;;;;;1.83;1.73;;;21.10;99.90;;;;;;4970068;28;20587;-79
2021/06/23 04:41:43;;;;;;;1.50;1.40;;;21.10;99.90;;;;;;4970349;28;21038;-77
2021/06/23 04:44:12;;;;;;;1.83;1.73;;;21.10;1.00;;;;;;4972159;28;20494;-79
2021/06/23 04:46:40;;;;;;;2.63;1.83;;;21.00;1.00;;;;;;4974764;28;20872;-78
2021/06/23 04:49:09;;;;;;;2.20;1.63;;;21.00;5.70;;;;;;4969218;28;20474;-71
2021/06/23 04:51:37;;;;;;;1.60;1.47;;;21.00;99.90;;;;;;4966625;28;20514;-70
2021/06/23 04:54:06;;;;;;;1.33;1.23;;;20.80;1.00;;;;;;4964321;28;20530;-70
2021/06/23 04:56:34;;;;;;;1.40;1.30;;;20.70;60.20;;;;;;4970507;28;20549;-69
2021/06/23 04:59:02;;;;;;;1.53;1.43;;;20.60;99.90;;;;;;4967917;28;21024;-71
2021/06/23 05:01:32;;;;;;;1.30;1.20;;;20.50;99.90;;;;;;4968889;28;20483;-71
2021/06/23 05:04:00;;;;;;;1.40;1.20;;;20.30;1.00;;;;;;4967234;28;20490;-70
2021/06/23 05:06:28;;;;;;;1.53;1.20;;;20.10;1.00;;;;;;4967079;28;20514;-69
2021/06/23 05:08:56;;;;;;;1.53;1.10;;;20.10;90.90;;;;;;4961087;28;20465;-70
2021/06/23 05:11:24;;;;;;;1.50;1.00;;;20.30;1.00;;;;;;4962837;28;20483;-80
2021/06/23 05:13:55;;;;;;;3.33;1.10;;;20.10;1.00;;;;;;4976260;28;20451;-81
2021/06/23 05:16:23;;;;;;;1.57;1.30;;;20.10;1.00;;;;;;4976505;28;20490;-80
2021/06/23 05:18:55;;;;;;;1.90;1.17;;;20.20;6.50;;;;;;4966791;28;20843;-81
2021/06/23 05:21:23;;;;;;;1.40;1.30;;;20.40;1.00;;;;;;4970480;28;20530;-81
2021/06/23 05:23:55;;;;;;;1.50;1.40;;;20.40;99.90;;;;;;4981039;28;20725;-83
2021/06/23 05:26:23;;;;;;;1.10;0.80;;;20.50;1.00;;;;;;4985290;28;20570;-83
2021/06/23 05:28:51;;;;;;;1.20;1.10;;;20.50;99.90;;;;;;4987108;28;20999;-83
2021/06/23 05:31:19;;;;;;;0.90;0.90;;;20.60;92.00;;;;;;4983603;28;20498;-82
2021/06/23 05:33:48;;;;;;;1.33;1.03;;;20.60;76.00;;;;;;4982395;28;20467;-82
2021/06/23 05:36:17;;;;;;;1.80;1.20;;;20.60;99.90;;;;;;4983976;28;20511;-82
2021/06/23 05:38:46;;;;;;;1.17;1.00;;;20.70;99.90;;;;;;4976117;28;20464;-81
2021/06/23 05:41:14;;;;;;;1.20;1.10;;;20.70;99.90;;;;;;4977892;28;20493;-83
2021/06/23 05:43:42;;;;;;;1.27;1.17;;;20.80;99.90;;;;;;4984627;28;20447;-83
2021/06/23 05:46:11;;;;;;;2.93;1.30;;;20.80;99.90;;;;;;4987675;28;20431;-82
2021/06/23 05:48:39;;;;;;;1.57;1.20;;;20.80;99.90;;;;;;4982880;28;20959;-81
2021/06/23 05:51:07;;;;;;;1.40;1.30;;;20.80;99.90;;;;;;4981590;28;20479;-79
2021/06/23 05:53:37;;;;;;;1.40;1.30;;;20.80;1.00;;;;;;4982020;28;21022;-82
2021/06/23 05:56:06;;;;;;;1.30;1.20;;;20.90;99.90;;;;;;4978678;28;20455;-82
2021/06/23 05:58:34;;;;;;;1.63;1.53;;;20.90;99.90;;;;;;4973829;28;20543;-80
2021/06/23 06:01:05;;;;;;;2.30;2.07;;;21.00;99.90;;;;;;4975657;28;21030;-82
2021/06/23 06:03:34;;;;;;;1.40;1.27;;;21.00;99.90;;;;;;4982539;28;20499;-82
2021/06/23 06:06:02;;;;;;;1.50;1.40;;;21.10;99.90;;;;;;4975987;28;21007;-82
2021/06/23 06:08:31;;;;;;;2.00;1.70;;;21.10;1.00;;;;;;4976586;28;20856;-81
2021/06/23 06:11:01;;;;;;;2.83;1.90;;;21.20;1.00;;;;;;4978857;28;20897;-81
2021/06/23 06:13:29;;;;;;;2.53;1.77;;;21.30;1.00;;;;;;4976324;28;20515;-81
2021/06/23 06:15:57;;;;;;;1.77;1.60;;;21.30;99.90;;;;;;4973495;28;21018;-81
2021/06/23 06:18:26;;;;;;;1.57;1.47;;;21.40;99.90;;;;;;4972301;28;20455;-81
2021/06/23 06:20:57;;;;;;;1.57;1.43;;;21.60;99.90;;;;;;4977883;28;20523;-81
2021/06/23 06:23:26;;;;;;;4.23;1.40;;;21.40;1.00;;;;;;4970761;28;20454;-80
2021/06/23 06:25:54;;;;;;;1.50;1.40;;;21.40;99.90;;;;;;4977466;28;21156;-80
2021/06/23 06:28:24;;;;;;;1.50;1.40;;;21.50;99.90;;;;;;4980875;28;20471;-80
2021/06/23 06:30:52;;;;;;;2.00;1.57;;;21.60;99.90;;;;;;4977266;28;20571;-81
2021/06/23 06:33:20;;;;;;;1.57;1.47;;;21.60;1.00;;;;;;4975273;28;20474;-80
2021/06/23 06:35:48;;;;;;;3.10;1.77;;;21.60;99.90;;;;;;4979332;28;20452;-81
2021/06/23 06:38:16;;;;;;;2.00;1.80;;;21.60;99.90;;;;;;4973813;28;20953;-81
2021/06/23 06:40:44;;;;;;;1.87;1.77;;;21.60;1.00;;;;;;4977579;28;21000;-80
2021/06/23 06:43:14;;;;;;;1.70;1.53;;;21.60;1.00;;;;;;4977305;28;20457;-80
2021/06/23 06:45:45;;;;;;;2.73;1.77;;;21.60;1.00;;;;;;4976924;28;20465;-82
2021/06/23 06:48:13;;;;;;;1.80;1.70;;;21.70;1.00;;;;;;4974942;28;20468;-82
2021/06/23 06:50:42;;;;;;;1.90;1.77;;;21.70;1.00;;;;;;4976440;28;20490;-82
2021/06/23 06:53:11;;;;;;;5.10;1.70;;;21.70;1.00;;;;;;4975255;28;20459;-83
2021/06/23 06:55:39;;;;;;;1.50;1.40;;;21.70;1.00;;;;;;4974761;28;20452;-80
2021/06/23 06:58:07;;;;;;;2.03;1.83;;;21.80;99.90;;;;;;4973802;28;20466;-81
2021/06/23 07:00:37;;;;;;;1.90;1.57;;;21.80;99.90;;;;;;4974546;28;20486;-81
2021/06/23 07:03:07;;;;;;;2.20;1.80;;;21.90;99.90;;;;;;4974478;28;20461;-83
2021/06/23 07:05:35;;;;;;;1.40;1.30;;;22.00;99.90;;;;;;4984366;28;20450;-80
2021/06/23 07:08:04;;;;;;;1.53;1.43;;;22.00;99.90;;;;;;4969578;28;20471;-82
2021/06/23 07:10:33;;;;;;;1.43;1.33;;;22.10;1.00;;;;;;4972656;28;20509;-80
2021/06/23 07:13:04;;;;;;;1.40;1.30;;;22.20;99.90;;;;;;4976362;28;20457;-81
2021/06/23 07:15:32;;;;;;;1.60;1.50;;;22.30;99.90;;;;;;4974411;28;20454;-80
2021/06/23 07:18:01;;;;;;;1.50;1.40;;;22.30;99.90;;;;;;4972905;28;20535;-81
2021/06/23 07:20:31;;;;;;;1.70;1.60;;;22.40;99.90;;;;;;4966574;28;21039;-80
2021/06/23 07:22:59;;;;;;;1.67;1.57;;;22.40;99.90;;;;;;4980335;28;20461;-82
2021/06/23 07:25:28;;;;;;;1.40;1.30;;;22.30;99.90;;;;;;4972377;28;20465;-80
2021/06/23 07:28:01;;;;;;;1.73;1.63;;;22.40;65.20;;;;;;4969136;28;20458;-80
2021/06/23 07:30:32;;;;;;;2.17;1.80;;;22.40;37.30;;;;;;4970266;28;20520;-80
2021/06/23 07:33:04;;;;;;;1.90;1.70;;;22.40;17.30;;;;;;4967391;28;20537;-80
2021/06/23 07:38:19;;;;;;;1.67;1.57;;;22.60;1.00;;;;;;4974552;28;20541;-82
2021/06/23 07:40:56;;;;;;;1.50;1.40;;;22.50;1.00;;;;;;4974366;28;20514;-82
2021/06/23 07:43:24;;;;;;;1.80;1.70;;;22.50;1.00;;;;;;4967032;28;20563;-81
2021/06/23 07:45:53;;;;;;;1.90;1.50;;;22.40;1.00;;;;;;4973092;28;20465;-81
2021/06/23 07:48:26;;;;;;;1.70;1.60;;;22.40;1.00;;;;;;4972771;28;20610;-80
2021/06/23 07:51:05;;;;;;;1.60;1.20;;;22.50;1.00;;;;;;4975699;28;20565;-80
2021/06/23 07:53:41;;;;;;;1.30;1.20;;;22.50;1.00;;;;;;4967048;28;20978;-81
2021/06/23 07:56:10;;;;;;;1.30;1.20;;;22.50;1.00;;;;;;4972429;28;20757;-81
2021/06/23 08:09:58;;;;;;;1.20;1.10;;;22.60;1.00;;;;;;4971710;28;20469;-80
2021/06/23 08:12:28;;;;;;;2.10;1.30;;;22.60;1.00;;;;;;4971529;28;20772;-80
2021/06/23 08:14:56;;;;;;;1.53;1.30;;;22.60;1.00;;;;;;4973969;28;20466;-81
2021/06/23 08:17:25;;;;;;;1.33;1.20;;;22.70;1.00;;;;;;4969427;28;20486;-81
2021/06/23 08:19:53;;;;;;;2.10;1.30;;;22.80;1.00;;;;;;4971479;28;20454;-81
2021/06/23 08:22:22;;;;;;;1.67;1.57;;;22.80;1.00;;;;;;4968053;28;20486;-80
2021/06/23 08:24:51;;;;;;;1.30;1.20;;;22.80;1.00;;;;;;4970703;28;20467;-82
2021/06/23 08:27:19;;;;;;;1.40;1.17;;;22.80;1.00;;;;;;4971105;28;20492;-81
2021/06/23 08:29:47;;;;;;;1.27;1.17;;;22.80;1.00;;;;;;4971881;28;20974;-82
2021/06/23 08:32:15;;;;;;;1.53;1.10;;;22.90;1.00;;;;;;4970922;28;20486;-81
2021/06/23 08:34:44;;;;;;;3.23;1.03;;;22.90;1.00;;;;;;4970055;28;20972;-82
2021/06/23 08:37:12;;;;;;;1.27;1.17;;;23.10;1.00;;;;;;4971715;28;20490;-81
2021/06/23 08:39:42;;;;;;;1.33;1.10;;;23.10;1.00;;;;;;4974025;28;20505;-81
2021/06/23 08:42:10;;;;;;;1.30;1.00;;;23.20;1.00;;;;;;4965912;28;20533;-80
2021/06/23 08:44:39;;;;;;;1.23;1.13;;;23.30;1.00;;;;;;4970938;28;20510;-79
2021/06/23 08:47:07;;;;;;;1.80;1.17;;;23.30;1.00;;;;;;4965192;28;20966;-81
2021/06/23 08:49:39;;;;;;;5.17;1.33;;;23.40;1.00;;;;;;4968225;28;20542;-82
2021/06/23 08:52:07;;;;;;;1.70;1.27;;;23.50;1.00;;;;;;4969916;28;20474;-81
2021/06/23 09:02:14;;;;;;;0.97;0.97;;;23.70;1.00;;;;;;4966227;28;20486;-81
2021/06/23 09:04:56;;;;;;;1.47;1.00;;;23.80;1.00;;;;;;4972767;28;20550;-76
2021/06/23 09:07:38;;;;;;;2.03;1.00;;;23.80;1.00;;;;;;4971886;28;20490;-81
2021/06/23 09:10:09;;;;;;;1.07;1.07;;;23.80;1.00;;;;;;4973255;28;20481;-78
2021/06/23 09:12:37;;;;;;;1.80;1.60;;;23.80;1.00;;;;;;4971135;28;20451;-82
2021/06/23 09:15:06;;;;;;;1.40;1.20;;;23.80;1.00;;;;;;4973044;28;20443;-81
2021/06/23 09:17:36;;;;;;;1.90;1.20;;;23.70;1.00;;;;;;4967923;28;20457;-81
2021/06/23 09:20:05;;;;;;;1.40;1.30;;;23.70;1.00;;;;;;4971162;28;20462;-81
2021/06/23 09:22:40;;;;;;;1.70;1.30;;;23.70;1.00;;;;;;4971810;28;20513;-82
2021/06/23 09:25:26;;;;;;;1.90;1.40;;;23.80;1.00;;;;;;4974360;28;20458;-79
2021/06/23 09:27:57;;;;;;;2.50;1.50;;;23.80;1.00;;;;;;4966477;28;20644;-82
2021/06/23 09:30:36;;;;;;;1.80;1.27;;;23.90;1.00;;;;;;4972002;28;20467;-82
2021/06/23 09:33:17;;;;;;;2.17;1.47;;;23.90;1.00;;;;;;4971660;28;20547;-82
2021/06/23 09:35:49;;;;;;;1.57;1.47;;;23.80;1.00;;;;;;4968896;28;20505;-83
2021/06/23 09:38:43;;;;;;;1.40;1.30;;;23.80;1.00;;;;;;4976975;28;20630;-82
2021/06/23 09:41:26;;;;;;;1.30;1.20;;;23.80;1.00;;;;;;4972600;28;20574;-82
2021/06/23 09:44:07;;;;;;;1.40;1.30;;;23.80;1.00;;;;;;4973970;28;20951;-82
2021/06/23 09:46:37;;;;;;;1.10;1.10;;;23.80;1.00;;;;;;4970834;28;20562;-83
2021/06/23 09:49:13;;;;;;;1.53;1.10;;;24.00;1.00;;;;;;4970258;28;20461;-83
2021/06/23 09:51:44;;;;;;;1.20;1.10;;;24.00;1.00;;;;;;4972961;28;21114;-82
2021/06/23 09:54:14;;;;;;;1.30;1.20;;;24.00;1.00;;;;;;4968688;28;20461;-84
2021/06/23 09:57:12;;;;;;;2.07;1.37;;;24.10;1.00;;;;;;4971394;28;20451;-83
2021/06/23 09:59:43;;;;;;;1.40;1.10;;;24.10;1.00;;;;;;4971489;28;20892;-82
2021/06/23 10:02:25;;;;;;;1.33;1.23;;;24.10;1.00;;;;;;4967868;28;20484;-81
2021/06/23 10:04:56;;;;;;;1.30;1.20;;;24.10;1.00;;;;;;4968493;28;20461;-81
2021/06/23 10:07:42;;;;;;;2.03;1.20;;;24.10;1.00;;;;;;4973620;28;20886;-82
2021/06/23 10:10:11;;;;;;;3.07;1.10;;;24.10;1.00;;;;;;4966422;28;20455;-83
2021/06/23 10:12:40;;;;;;;1.30;1.20;;;24.10;1.00;;;;;;4970481;28;20963;-77
2021/06/23 10:15:10;;;;;;;2.70;1.83;;;24.10;1.00;;;;;;4971782;28;20451;-81
2021/06/23 10:17:38;;;;;;;2.30;1.27;;;24.10;1.00;;;;;;4977650;28;20814;-81
2021/06/23 10:20:10;;;;;;;2.80;2.47;;;24.10;1.00;;;;;;4973883;28;20459;-77
2021/06/23 10:22:40;;;;;;;7.20;5.07;;;24.10;1.00;;;;;;4973795;28;20577;-80
2021/06/23 10:25:10;;;;;;;5.03;2.20;;;24.10;1.00;;;;;;4973930;28;20954;-79
2021/06/23 10:27:42;;;;;;;1.60;1.50;;;24.10;1.00;;;;;;4973411;28;20455;-78
2021/06/23 10:30:12;;;;;;;3.77;1.87;;;24.10;1.00;;;;;;4971904;28;20475;-78
2021/06/23 10:32:41;;;;;;;1.40;1.30;;;24.10;1.00;;;;;;4971926;28;20455;-80
2021/06/23 10:35:14;;;;;;;1.77;1.20;;;24.10;1.00;;;;;;4970131;28;21033;-78
2021/06/23 10:37:45;;;;;;;3.10;1.40;;;24.10;1.00;;;;;;4971724;28;20462;-79
2021/06/23 10:40:15;;;;;;;2.93;1.30;;;24.00;1.00;;;;;;4970563;28;20517;-80
2021/06/23 10:42:44;;;;;;;1.30;1.17;;;24.10;1.00;;;;;;4970957;28;20471;-81
2021/06/23 10:45:14;;;;;;;1.43;0.93;;;24.10;1.00;;;;;;4973247;28;20882;-80
2021/06/23 10:47:45;;;;;;;1.33;1.23;;;24.10;1.00;;;;;;4972018;28;20958;-78
2021/06/23 10:50:31;;;;;;;1.83;1.10;;;24.20;1.00;;;;;;4975036;28;20518;-80
2021/06/23 10:53:00;;;;;;;1.37;0.93;;;24.20;1.00;;;;;;4971921;28;20884;-81
2021/06/23 10:55:46;;;;;;;1.37;1.07;;;24.20;1.00;;;;;;4974610;28;20451;-80
2021/06/23 10:58:14;;;;;;;3.67;0.97;;;24.30;1.00;;;;;;4974707;28;20447;-80
2021/06/23 11:00:48;;;;;;;1.30;0.90;;;24.30;1.00;;;;;;4973436;28;20854;-79
2021/06/23 11:03:18;;;;;;;1.33;1.23;;;24.40;1.00;;;;;;4971874;28;21010;-82
2021/06/23 11:05:49;;;;;;;1.13;1.03;;;24.50;1.00;;;;;;4975539;28;20478;-82
2021/06/23 11:08:29;;;;;;;1.77;1.00;;;24.50;1.00;;;;;;4973840;28;20451;-81
2021/06/23 11:10:59;;;;;;;1.60;0.90;;;24.50;1.00;;;;;;4975240;28;20506;-77
2021/06/23 11:13:29;;;;;;;0.90;0.80;;;24.50;1.00;;;;;;4970342;28;20459;-80
2021/06/23 11:15:57;;;;;;;1.50;0.77;;;24.60;1.00;;;;;;4974722;28;20514;-81
2021/06/23 11:18:38;;;;;;;0.80;0.80;;;24.70;99.90;;;;;;4974398;28;20455;-80
2021/06/23 11:21:20;;;;;;;0.70;0.70;;;24.70;99.90;;;;;;4974692;28;20533;-81
2021/06/23 11:23:59;;;;;;;0.93;0.70;;;24.80;99.90;;;;;;4988735;28;20470;-80
2021/06/23 11:27:02;;;;;;;0.80;0.80;;;24.80;99.90;;;;;;4972652;28;20982;-81
2021/06/23 11:29:38;;;;;;;0.90;0.77;;;24.80;99.90;;;;;;4975873;28;21030;-81
2021/06/23 11:32:11;;;;;;;0.60;0.60;;;24.80;99.90;;;;;;4973980;28;20495;-81
2021/06/23 11:34:58;;;;;;;0.70;0.70;;;24.80;99.90;;;;;;4974203;28;20454;-81
2021/06/23 11:37:35;;;;;;;0.60;0.57;;;24.80;99.90;;;;;;4972331;28;20970;-81
2021/06/23 11:40:23;;;;;;;0.67;0.67;;;24.90;99.90;;;;;;4975218;28;20542;-81
2021/06/23 11:42:56;;;;;;;1.00;0.67;;;24.90;99.90;;;;;;4974038;28;20475;-82
2021/06/23 11:45:24;;;;;;;0.60;0.60;;;25.00;99.90;;;;;;4975221;28;21249;-82
2021/06/23 11:47:53;;;;;;;1.10;0.60;;;25.00;99.90;;;;;;4968405;28;20461;-81
2021/06/23 11:50:22;;;;;;;0.50;0.50;;;25.00;99.90;;;;;;4974570;28;21184;-82
2021/06/23 11:52:52;;;;;;;0.67;0.60;;;25.00;99.90;;;;;;4972116;28;20469;-80
2021/06/23 11:55:26;;;;;;;0.43;0.43;;;25.00;99.90;;;;;;4973264;28;20443;-82
2021/06/23 11:57:58;;;;;;;0.50;0.50;;;24.90;99.90;;;;;;4967361;28;20525;-82
2021/06/23 12:00:28;;;;;;;0.70;0.70;;;25.00;99.90;;;;;;4970190;28;20466;-82
2021/06/23 12:02:58;;;;;;;0.77;0.63;;;25.00;99.90;;;;;;4978312;28;20459;-79
2021/06/23 12:05:27;;;;;;;0.77;0.67;;;25.00;99.90;;;;;;4970118;28;20478;-80
2021/06/23 12:07:57;;;;;;;1.83;0.57;;;25.10;99.90;;;;;;4973881;28;20443;-78
2021/06/23 12:10:28;;;;;;;0.60;0.60;;;25.10;99.90;;;;;;4971619;28;21156;-80
2021/06/23 12:12:57;;;;;;;0.70;0.50;;;25.20;99.90;;;;;;4970654;28;20460;-80
2021/06/23 12:15:26;;;;;;;0.83;0.50;;;25.20;99.90;;;;;;4971546;28;20459;-80
2021/06/23 12:17:57;;;;;;;1.70;0.70;;;25.20;99.90;;;;;;4974428;28;20464;-81
2021/06/23 12:20:28;;;;;;;0.50;0.50;;;25.20;99.90;;;;;;4975329;28;20587;-80
2021/06/23 12:22:59;;;;;;;0.60;0.60;;;25.20;99.90;;;;;;4973577;28;20534;-80
2021/06/23 12:25:32;;;;;;;0.60;0.60;;;25.20;99.90;;;;;;4971812;28;20521;-81
2021/06/23 12:28:02;;;;;;;0.57;0.57;;;25.20;99.90;;;;;;4970376;28;20502;-79
2021/06/23 12:30:31;;;;;;;0.50;0.50;;;25.20;99.90;;;;;;4974336;28;20479;-81
2021/06/23 12:33:03;;;;;;;1.23;0.60;;;25.20;99.90;;;;;;4974913;28;20458;-81
2021/06/23 12:35:32;;;;;;;0.57;0.57;;;25.30;99.90;;;;;;4968866;28;20494;-78
2021/06/23 12:38:02;;;;;;;1.43;0.60;;;25.30;99.90;;;;;;4974698;28;20479;-79
2021/06/23 12:40:30;;;;;;;1.03;0.70;;;25.30;99.90;;;;;;4964403;28;20486;-81
2021/06/23 12:42:58;;;;;;;1.00;1.00;;;25.30;99.90;;;;;;4975066;28;20477;-80
2021/06/23 12:45:27;;;;;;;0.90;0.60;;;25.30;99.90;;;;;;4969504;28;20467;-81
2021/06/23 12:47:56;;;;;;;0.50;0.50;;;25.40;99.90;;;;;;4973773;28;21024;-81
2021/06/23 12:50:28;;;;;;;0.67;0.53;;;25.40;99.90;;;;;;4971653;28;20527;-82
2021/06/23 12:52:56;;;;;;;0.60;0.50;;;25.40;99.90;;;;;;4970950;28;20602;-80
2021/06/23 12:55:26;;;;;;;1.43;0.60;;;25.40;99.90;;;;;;4964305;28;20454;-80
2021/06/23 12:57:56;;;;;;;0.70;0.50;;;25.40;99.90;;;;;;4971357;28;20457;-79
2021/06/23 13:00:24;;;;;;;0.90;0.50;;;25.40;99.90;;;;;;4972846;28;20986;-81
2021/06/23 13:02:53;;;;;;;2.20;0.70;;;25.50;99.90;;;;;;4970991;28;20479;-80
2021/06/23 13:05:22;;;;;;;2.83;1.50;;;25.50;99.90;;;;;;4973512;28;20454;-79
2021/06/23 13:07:52;;;;;;;1.43;1.00;;;25.60;99.90;;;;;;4972308;28;20467;-83
2021/06/23 13:10:21;;;;;;;2.60;1.20;;;25.60;99.90;;;;;;4972112;28;20998;-81
2021/06/23 13:12:50;;;;;;;1.20;1.10;;;25.50;99.90;;;;;;4974335;28;20568;-80
2021/06/23 13:15:19;;;;;;;1.47;1.10;;;25.50;99.90;;;;;;4972163;28;20471;-82
2021/06/23 13:17:48;;;;;;;1.83;1.20;;;25.50;99.90;;;;;;4972583;28;21006;-84
2021/06/23 13:20:21;;;;;;;2.73;0.70;;;25.60;99.90;;;;;;4974199;28;20542;-81
2021/06/23 13:22:49;;;;;;;1.73;1.30;;;25.50;99.90;;;;;;4974442;28;20475;-83
2021/06/23 13:25:17;;;;;;;2.20;1.30;;;25.60;99.90;;;;;;4972680;28;20538;-84
2021/06/23 13:27:46;;;;;;;8.13;3.50;;;25.60;99.90;;;;;;4969639;28;20444;-84
2021/06/23 13:30:18;;;;;;;1.83;0.80;;;25.60;99.90;;;;;;4972114;28;20474;-85